Monday, January 22, 2018, 8:45 AM EST
Back to Local

KGNR, Greenville

Location: Greenville, ME, United States Lat: 45.467
Local Time: 8:45 AM EST (13:45 GMT) Lon: -69.583
Time Zone: US/Eastern Elev: 1400 ft

Show me the last for .
Show Decoded

2018-01-22 07:56 METAR KGNR 221256Z AUTO 35004KT M11/M16 A3027 RMK AO1 SLP280 T11111156 =
2018-01-22 06:56 METAR KGNR 221156Z AUTO 34005KT M11/M13 A3024 RMK AO1 SLP270 P0001 60003 70003
                 T11111133 11083 21111 53018 =
2018-01-22 05:56 METAR KGNR 221056Z AUTO 34003KT M11/M13 A3022 RMK AO1 SLP259 T11061128 =
2018-01-22 04:56 METAR KGNR 220956Z AUTO 34006KT M11/M12 A3020 RMK AO1 SLP256 P0002 T11061122 =
2018-01-22 03:56 METAR KGNR 220856Z AUTO 34003KT M10/M12 A3019 RMK AO1 SLP249 T11001122 53014 =
2018-01-22 02:56 METAR KGNR 220756Z AUTO 33006KT M09/M14 A3017 RMK AO1 SLP243 T10941144 =
2018-01-22 01:56 METAR KGNR 220656Z AUTO 36007KT M09/M15 A3016 RMK AO1 SLP237 T10891150 =
2018-01-22 00:56 METAR KGNR 220556Z AUTO 34005KT M08/M14 A3014 RMK AO1 SLP233 T10831139 11044
                 21083 53007 =
2018-01-21 23:56 METAR KGNR 220456Z AUTO 33006KT M08/M14 A3014 RMK AO1 SLP231 T10781139 410221078
                 =
2018-01-21 22:56 METAR KGNR 220356Z AUTO 36004KT M07/M13 A3013 RMK AO1 SLP227 T10721133 =
2018-01-21 21:56 METAR KGNR 220256Z AUTO 33003KT M07/M13 A3012 RMK AO1 SLP227 T10671128 53011 =
2018-01-21 20:56 METAR KGNR 220156Z AUTO 34010KT M06/M12 A3012 RMK AO1 SLP224 T10611122 =
2018-01-21 19:56 METAR KGNR 220056Z AUTO 33011KT M05/M11 A3010 RMK AO1 SLP217 T10501111 =
2018-01-21 18:56 METAR KGNR 212356Z AUTO 32010KT M04/M11 A3009 RMK AO1 SLP214 T10441111 11028
                 21044 53016 =
2018-01-21 17:56 METAR KGNR 212256Z AUTO 31009KT M04/M11 A3006 RMK AO1 SLP203 T10441111 =
2018-01-21 16:56 METAR KGNR 212156Z AUTO VRB05KT M04/M11 A3004 RMK AO1 SLP195 T10391111 =
2018-01-21 15:56 METAR KGNR 212056Z AUTO 30011G18KT M04/M11 A3004 RMK AO1 SLP195 T10391111 53021
                 =
2018-01-21 14:56 METAR KGNR 211956Z AUTO 31011G20KT M03/M11 A3001 RMK AO1 SLP184 T10281106 =
2018-01-21 13:56 METAR KGNR 211856Z AUTO 32013G19KT M03/M11 A2999 RMK AO1 SLP178 T10281106 =
2018-01-21 12:56 METAR KGNR 211756Z AUTO 32012G19KT M03/M11 A2998 RMK AO1 SLP172 T10331106 11028
                 21072 52001 =
2018-01-21 11:56 METAR KGNR 211656Z AUTO 31015G22KT M04/M11 A2997 RMK AO1 SLP171 T10391111 =
2018-01-21 10:56 METAR KGNR 211556Z AUTO 31011G17KT M04/M11 A2998 RMK AO1 SLP172 T10441111 =
2018-01-21 09:56 METAR KGNR 211456Z AUTO 31012G24KT M06/M12 A2997 RMK AO1 SLP171 T10611117 51021
                 =
2018-01-21 08:56 METAR KGNR 211356Z AUTO 32013G20KT M07/M12 A2996 RMK AO1 SLP167 T10671117 =

Support USWX by starting your Amazon purchase here.